sensor_id;sensor_type;location;lat;lon;timestamp;temperature;humidity
14614;DHT22;7393;51.446;6.800;2023-10-31T00:01:32;12.90;1.00
14614;DHT22;7393;51.446;6.800;2023-10-31T00:03:58;12.80;1.00
14614;DHT22;7393;51.446;6.800;2023-10-31T00:06:26;12.80;1.00
14614;DHT22;7393;51.446;6.800;2023-10-31T00:08:53;12.70;1.00
14614;DHT22;7393;51.446;6.800;2023-10-31T00:11:20;12.60;1.00
14614;DHT22;7393;51.446;6.800;2023-10-31T00:13:47;12.60;1.00
14614;DHT22;7393;51.446;6.800;2023-10-31T00:16:14;12.50;1.00
14614;DHT22;7393;51.446;6.800;2023-10-31T00:18:41;12.50;1.00
14614;DHT22;7393;51.446;6.800;2023-10-31T00:21:08;12.50;1.00
14614;DHT22;7393;51.446;6.800;2023-10-31T00:23:42;12.40;1.00
14614;DHT22;7393;51.446;6.800;2023-10-31T00:26:09;12.40;1.00
14614;DHT22;7393;51.446;6.800;2023-10-31T00:28:36;12.30;1.00
14614;DHT22;7393;51.446;6.800;2023-10-31T00:31:03;12.30;1.00
14614;DHT22;7393;51.446;6.800;2023-10-31T00:33:30;12.20;1.00
14614;DHT22;7393;51.446;6.800;2023-10-31T00:35:58;12.20;1.00
14614;DHT22;7393;51.446;6.800;2023-10-31T00:38:24;12.10;1.00
14614;DHT22;7393;51.446;6.800;2023-10-31T00:40:53;12.10;1.00
14614;DHT22;7393;51.446;6.800;2023-10-31T00:43:20;12.10;1.00
14614;DHT22;7393;51.446;6.800;2023-10-31T00:45:46;12.10;1.00
14614;DHT22;7393;51.446;6.800;2023-10-31T00:48:13;12.10;1.00
14614;DHT22;7393;51.446;6.800;2023-10-31T00:50:40;12.00;1.00
14614;DHT22;7393;51.446;6.800;2023-10-31T00:53:07;11.90;1.00
14614;DHT22;7393;51.446;6.800;2023-10-31T00:55:34;12.00;1.00
14614;DHT22;7393;51.446;6.800;2023-10-31T00:58:02;11.90;1.00
14614;DHT22;7393;51.446;6.800;2023-10-31T01:00:29;11.90;1.00
14614;DHT22;7393;51.446;6.800;2023-10-31T01:02:56;11.90;1.00
14614;DHT22;7393;51.446;6.800;2023-10-31T01:05:22;11.80;1.00
14614;DHT22;7393;51.446;6.800;2023-10-31T01:07:49;11.80;1.00
14614;DHT22;7393;51.446;6.800;2023-10-31T01:10:16;11.80;1.00
14614;DHT22;7393;51.446;6.800;2023-10-31T01:12:43;11.70;1.00
14614;DHT22;7393;51.446;6.800;2023-10-31T01:15:11;11.70;1.00
14614;DHT22;7393;51.446;6.800;2023-10-31T01:17:38;11.70;1.00
14614;DHT22;7393;51.446;6.800;2023-10-31T01:20:06;11.70;1.00
14614;DHT22;7393;51.446;6.800;2023-10-31T01:22:33;11.70;1.00
14614;DHT22;7393;51.446;6.800;2023-10-31T01:25:00;11.70;1.00
14614;DHT22;7393;51.446;6.800;2023-10-31T01:27:26;11.60;1.00
14614;DHT22;7393;51.446;6.800;2023-10-31T01:29:53;11.70;1.00
14614;DHT22;7393;51.446;6.800;2023-10-31T01:32:21;11.70;1.00
14614;DHT22;7393;51.446;6.800;2023-10-31T01:34:48;11.70;1.00
14614;DHT22;7393;51.446;6.800;2023-10-31T01:37:15;11.70;1.00
14614;DHT22;7393;51.446;6.800;2023-10-31T01:39:44;11.60;1.00
14614;DHT22;7393;51.446;6.800;2023-10-31T01:42:13;11.60;1.00
14614;DHT22;7393;51.446;6.800;2023-10-31T01:44:40;11.70;1.00
14614;DHT22;7393;51.446;6.800;2023-10-31T01:47:07;11.70;1.00
14614;DHT22;7393;51.446;6.800;2023-10-31T01:49:35;11.70;1.00
14614;DHT22;7393;51.446;6.800;2023-10-31T01:52:03;11.70;1.00
14614;DHT22;7393;51.446;6.800;2023-10-31T01:54:32;11.60;1.00
14614;DHT22;7393;51.446;6.800;2023-10-31T01:56:59;11.60;1.00
14614;DHT22;7393;51.446;6.800;2023-10-31T01:59:27;11.60;1.00
14614;DHT22;7393;51.446;6.800;2023-10-31T02:01:54;11.60;1.00
14614;DHT22;7393;51.446;6.800;2023-10-31T02:04:21;11.60;1.00
14614;DHT22;7393;51.446;6.800;2023-10-31T02:06:50;11.60;1.00
14614;DHT22;7393;51.446;6.800;2023-10-31T02:09:17;11.60;1.00
14614;DHT22;7393;51.446;6.800;2023-10-31T02:11:43;11.60;1.00
14614;DHT22;7393;51.446;6.800;2023-10-31T02:14:10;11.60;1.00
14614;DHT22;7393;51.446;6.800;2023-10-31T02:16:37;11.60;1.00
14614;DHT22;7393;51.446;6.800;2023-10-31T02:19:04;11.60;1.00
14614;DHT22;7393;51.446;6.800;2023-10-31T02:21:32;11.50;1.00
14614;DHT22;7393;51.446;6.800;2023-10-31T02:24:01;11.60;1.00
14614;DHT22;7393;51.446;6.800;2023-10-31T02:26:29;11.60;1.00
14614;DHT22;7393;51.446;6.800;2023-10-31T02:28:56;11.60;1.00
14614;DHT22;7393;51.446;6.800;2023-10-31T02:31:23;11.60;1.00
14614;DHT22;7393;51.446;6.800;2023-10-31T02:33:50;11.50;1.00
14614;DHT22;7393;51.446;6.800;2023-10-31T02:36:17;11.50;1.00
14614;DHT22;7393;51.446;6.800;2023-10-31T02:38:44;11.50;1.00
14614;DHT22;7393;51.446;6.800;2023-10-31T02:41:12;11.50;1.00
14614;DHT22;7393;51.446;6.800;2023-10-31T02:43:40;11.50;1.00
14614;DHT22;7393;51.446;6.800;2023-10-31T02:46:06;11.50;1.00
14614;DHT22;7393;51.446;6.800;2023-10-31T02:48:33;11.50;1.00
14614;DHT22;7393;51.446;6.800;2023-10-31T02:51:04;11.50;1.00
14614;DHT22;7393;51.446;6.800;2023-10-31T02:53:31;11.50;1.00
14614;DHT22;7393;51.446;6.800;2023-10-31T02:55:58;11.40;1.00
14614;DHT22;7393;51.446;6.800;2023-10-31T02:58:26;11.40;1.00
14614;DHT22;7393;51.446;6.800;2023-10-31T03:00:53;11.40;1.00
14614;DHT22;7393;51.446;6.800;2023-10-31T03:03:20;11.40;1.00
14614;DHT22;7393;51.446;6.800;2023-10-31T03:05:47;11.40;1.00
14614;DHT22;7393;51.446;6.800;2023-10-31T03:08:14;11.40;1.00
14614;DHT22;7393;51.446;6.800;2023-10-31T03:10:46;11.40;1.00
14614;DHT22;7393;51.446;6.800;2023-10-31T03:13:15;11.40;1.00
14614;DHT22;7393;51.446;6.800;2023-10-31T03:15:43;11.40;1.00
14614;DHT22;7393;51.446;6.800;2023-10-31T03:18:10;11.40;1.00
14614;DHT22;7393;51.446;6.800;2023-10-31T03:20:37;11.40;1.00
14614;DHT22;7393;51.446;6.800;2023-10-31T03:23:03;11.40;1.00
14614;DHT22;7393;51.446;6.800;2023-10-31T03:25:30;11.40;1.00
14614;DHT22;7393;51.446;6.800;2023-10-31T03:27:57;11.40;1.00
14614;DHT22;7393;51.446;6.800;2023-10-31T03:30:24;11.30;1.00
14614;DHT22;7393;51.446;6.800;2023-10-31T03:32:53;11.40;1.00
14614;DHT22;7393;51.446;6.800;2023-10-31T03:35:19;11.40;1.00
14614;DHT22;7393;51.446;6.800;2023-10-31T03:37:46;11.40;1.00
14614;DHT22;7393;51.446;6.800;2023-10-31T03:40:13;11.40;1.00
14614;DHT22;7393;51.446;6.800;2023-10-31T03:42:40;11.40;1.00
14614;DHT22;7393;51.446;6.800;2023-10-31T03:45:08;11.40;1.00
14614;DHT22;7393;51.446;6.800;2023-10-31T03:47:34;11.40;1.00
14614;DHT22;7393;51.446;6.800;2023-10-31T03:50:03;11.40;1.00
14614;DHT22;7393;51.446;6.800;2023-10-31T03:52:30;11.40;1.00
14614;DHT22;7393;51.446;6.800;2023-10-31T03:54:57;11.30;1.00
14614;DHT22;7393;51.446;6.800;2023-10-31T03:57:24;11.30;1.00
14614;DHT22;7393;51.446;6.800;2023-10-31T03:59:50;11.20;1.00
14614;DHT22;7393;51.446;6.800;2023-10-31T04:02:17;11.20;1.00
14614;DHT22;7393;51.446;6.800;2023-10-31T04:04:44;11.20;1.00
14614;DHT22;7393;51.446;6.800;2023-10-31T04:07:12;11.20;1.00
14614;DHT22;7393;51.446;6.800;2023-10-31T04:09:39;11.20;1.00
14614;DHT22;7393;51.446;6.800;2023-10-31T04:12:06;11.20;1.00
14614;DHT22;7393;51.446;6.800;2023-10-31T04:14:32;11.30;1.00
14614;DHT22;7393;51.446;6.800;2023-10-31T04:16:59;11.30;1.00
14614;DHT22;7393;51.446;6.800;2023-10-31T04:19:26;11.30;1.00
14614;DHT22;7393;51.446;6.800;2023-10-31T04:21:53;11.20;1.00
14614;DHT22;7393;51.446;6.800;2023-10-31T04:24:22;11.20;1.00
14614;DHT22;7393;51.446;6.800;2023-10-31T04:26:48;11.20;1.00
14614;DHT22;7393;51.446;6.800;2023-10-31T04:29:15;11.30;1.00
14614;DHT22;7393;51.446;6.800;2023-10-31T04:31:42;11.30;1.00
14614;DHT22;7393;51.446;6.800;2023-10-31T04:34:08;11.30;1.00
14614;DHT22;7393;51.446;6.800;2023-10-31T04:36:35;11.30;1.00
14614;DHT22;7393;51.446;6.800;2023-10-31T04:39:02;11.30;1.00
14614;DHT22;7393;51.446;6.800;2023-10-31T04:41:31;11.30;1.00
14614;DHT22;7393;51.446;6.800;2023-10-31T04:43:58;11.30;1.00
14614;DHT22;7393;51.446;6.800;2023-10-31T04:46:24;11.30;1.00
14614;DHT22;7393;51.446;6.800;2023-10-31T04:48:52;11.30;1.00
14614;DHT22;7393;51.446;6.800;2023-10-31T04:51:19;11.30;1.00
14614;DHT22;7393;51.446;6.800;2023-10-31T04:53:46;11.30;1.00
14614;DHT22;7393;51.446;6.800;2023-10-31T04:56:13;11.30;1.00
14614;DHT22;7393;51.446;6.800;2023-10-31T04:58:42;11.30;1.00
14614;DHT22;7393;51.446;6.800;2023-10-31T05:01:10;11.30;1.00
14614;DHT22;7393;51.446;6.800;2023-10-31T05:03:38;11.30;1.00
14614;DHT22;7393;51.446;6.800;2023-10-31T05:06:05;11.30;1.00
14614;DHT22;7393;51.446;6.800;2023-10-31T05:08:32;11.30;1.00
14614;DHT22;7393;51.446;6.800;2023-10-31T05:10:59;11.30;1.00
14614;DHT22;7393;51.446;6.800;2023-10-31T05:13:26;11.30;1.00
14614;DHT22;7393;51.446;6.800;2023-10-31T05:15:54;11.30;1.00
14614;DHT22;7393;51.446;6.800;2023-10-31T05:18:21;11.30;1.00
14614;DHT22;7393;51.446;6.800;2023-10-31T05:20:49;11.30;1.00
14614;DHT22;7393;51.446;6.800;2023-10-31T05:23:16;11.30;1.00
14614;DHT22;7393;51.446;6.800;2023-10-31T05:25:43;11.30;1.00
14614;DHT22;7393;51.446;6.800;2023-10-31T05:28:10;11.30;1.00
14614;DHT22;7393;51.446;6.800;2023-10-31T05:30:36;11.30;1.00
14614;DHT22;7393;51.446;6.800;2023-10-31T05:33:05;11.30;1.00
14614;DHT22;7393;51.446;6.800;2023-10-31T05:35:32;11.30;1.00
14614;DHT22;7393;51.446;6.800;2023-10-31T05:37:59;11.30;1.00
14614;DHT22;7393;51.446;6.800;2023-10-31T05:40:26;11.30;1.00
14614;DHT22;7393;51.446;6.800;2023-10-31T05:42:54;11.30;1.00
14614;DHT22;7393;51.446;6.800;2023-10-31T05:45:22;11.30;1.00
14614;DHT22;7393;51.446;6.800;2023-10-31T05:47:49;11.40;1.00
14614;DHT22;7393;51.446;6.800;2023-10-31T05:50:17;11.30;1.00
14614;DHT22;7393;51.446;6.800;2023-10-31T05:52:44;11.30;1.00
14614;DHT22;7393;51.446;6.800;2023-10-31T05:55:11;11.30;1.00
14614;DHT22;7393;51.446;6.800;2023-10-31T05:57:38;11.30;1.00
14614;DHT22;7393;51.446;6.800;2023-10-31T06:00:06;11.30;1.00
14614;DHT22;7393;51.446;6.800;2023-10-31T06:02:33;11.30;1.00
14614;DHT22;7393;51.446;6.800;2023-10-31T06:05:00;11.30;1.00
14614;DHT22;7393;51.446;6.800;2023-10-31T06:07:28;11.30;1.00
14614;DHT22;7393;51.446;6.800;2023-10-31T06:09:55;11.30;1.00
14614;DHT22;7393;51.446;6.800;2023-10-31T06:12:22;11.30;1.00
14614;DHT22;7393;51.446;6.800;2023-10-31T06:14:49;11.30;1.00
14614;DHT22;7393;51.446;6.800;2023-10-31T06:17:16;11.30;1.00
14614;DHT22;7393;51.446;6.800;2023-10-31T06:19:43;11.40;1.00
14614;DHT22;7393;51.446;6.800;2023-10-31T06:22:11;11.40;1.00
14614;DHT22;7393;51.446;6.800;2023-10-31T06:24:39;11.40;1.00
14614;DHT22;7393;51.446;6.800;2023-10-31T06:27:06;11.40;1.00
14614;DHT22;7393;51.446;6.800;2023-10-31T06:29:33;11.40;1.00
14614;DHT22;7393;51.446;6.800;2023-10-31T06:32:00;11.40;1.00
14614;DHT22;7393;51.446;6.800;2023-10-31T06:34:27;11.40;1.00
14614;DHT22;7393;51.446;6.800;2023-10-31T06:36:54;11.40;1.00
14614;DHT22;7393;51.446;6.800;2023-10-31T06:39:21;11.50;1.00
14614;DHT22;7393;51.446;6.800;2023-10-31T06:41:53;11.50;1.00
14614;DHT22;7393;51.446;6.800;2023-10-31T06:44:20;11.50;1.00
14614;DHT22;7393;51.446;6.800;2023-10-31T06:46:47;11.40;1.00
14614;DHT22;7393;51.446;6.800;2023-10-31T06:49:14;11.40;1.00
14614;DHT22;7393;51.446;6.800;2023-10-31T06:51:40;11.40;1.00
14614;DHT22;7393;51.446;6.800;2023-10-31T06:54:07;11.40;1.00
14614;DHT22;7393;51.446;6.800;2023-10-31T06:56:34;11.50;1.00
14614;DHT22;7393;51.446;6.800;2023-10-31T06:59:02;11.40;1.00
14614;DHT22;7393;51.446;6.800;2023-10-31T07:01:30;11.40;1.00
14614;DHT22;7393;51.446;6.800;2023-10-31T07:03:57;11.40;1.00
14614;DHT22;7393;51.446;6.800;2023-10-31T07:06:23;11.40;1.00
14614;DHT22;7393;51.446;6.800;2023-10-31T07:08:50;11.40;1.00
14614;DHT22;7393;51.446;6.800;2023-10-31T07:11:17;11.50;1.00
14614;DHT22;7393;51.446;6.800;2023-10-31T07:13:44;11.50;1.00
14614;DHT22;7393;51.446;6.800;2023-10-31T07:16:12;11.50;1.00
14614;DHT22;7393;51.446;6.800;2023-10-31T07:18:39;11.50;1.00
14614;DHT22;7393;51.446;6.800;2023-10-31T07:21:06;11.50;1.00
14614;DHT22;7393;51.446;6.800;2023-10-31T07:23:33;11.50;1.00
14614;DHT22;7393;51.446;6.800;2023-10-31T07:26:00;11.50;1.00
14614;DHT22;7393;51.446;6.800;2023-10-31T07:28:26;11.50;1.00
14614;DHT22;7393;51.446;6.800;2023-10-31T07:30:53;11.50;1.00
14614;DHT22;7393;51.446;6.800;2023-10-31T07:33:21;11.50;1.00
14614;DHT22;7393;51.446;6.800;2023-10-31T07:35:48;11.50;1.00
14614;DHT22;7393;51.446;6.800;2023-10-31T07:38:15;11.60;1.00
14614;DHT22;7393;51.446;6.800;2023-10-31T07:40:41;11.50;1.00
14614;DHT22;7393;51.446;6.800;2023-10-31T07:43:08;11.50;1.00
14614;DHT22;7393;51.446;6.800;2023-10-31T07:45:35;11.50;1.00
14614;DHT22;7393;51.446;6.800;2023-10-31T07:48:02;11.50;1.00
14614;DHT22;7393;51.446;6.800;2023-10-31T07:50:30;11.50;1.00
14614;DHT22;7393;51.446;6.800;2023-10-31T07:52:57;11.50;1.00
14614;DHT22;7393;51.446;6.800;2023-10-31T07:55:25;11.50;1.00
14614;DHT22;7393;51.446;6.800;2023-10-31T07:57:51;11.50;1.00
14614;DHT22;7393;51.446;6.800;2023-10-31T08:00:19;11.50;1.00
14614;DHT22;7393;51.446;6.800;2023-10-31T08:02:46;11.60;1.00
14614;DHT22;7393;51.446;6.800;2023-10-31T08:05:13;11.60;1.00
14614;DHT22;7393;51.446;6.800;2023-10-31T08:07:41;11.60;1.00
14614;DHT22;7393;51.446;6.800;2023-10-31T08:10:08;11.60;1.00
14614;DHT22;7393;51.446;6.800;2023-10-31T08:12:35;11.60;1.00
14614;DHT22;7393;51.446;6.800;2023-10-31T08:15:02;11.60;1.00
14614;DHT22;7393;51.446;6.800;2023-10-31T08:17:29;11.60;1.00
14614;DHT22;7393;51.446;6.800;2023-10-31T08:19:56;11.60;1.00
14614;DHT22;7393;51.446;6.800;2023-10-31T08:22:22;11.60;1.00
14614;DHT22;7393;51.446;6.800;2023-10-31T08:24:50;11.60;1.00
14614;DHT22;7393;51.446;6.800;2023-10-31T08:27:17;11.70;1.00
14614;DHT22;7393;51.446;6.800;2023-10-31T08:29:43;11.70;1.00
14614;DHT22;7393;51.446;6.800;2023-10-31T08:32:10;11.70;1.00
14614;DHT22;7393;51.446;6.800;2023-10-31T08:34:37;11.70;1.00
14614;DHT22;7393;51.446;6.800;2023-10-31T08:37:03;11.70;1.00
14614;DHT22;7393;51.446;6.800;2023-10-31T08:39:30;11.70;1.00
14614;DHT22;7393;51.446;6.800;2023-10-31T08:41:58;11.80;1.00
14614;DHT22;7393;51.446;6.800;2023-10-31T08:44:25;11.80;1.00
14614;DHT22;7393;51.446;6.800;2023-10-31T08:46:52;11.80;1.00
14614;DHT22;7393;51.446;6.800;2023-10-31T08:49:19;11.80;1.00
14614;DHT22;7393;51.446;6.800;2023-10-31T08:51:45;11.90;1.00
14614;DHT22;7393;51.446;6.800;2023-10-31T08:54:12;11.90;1.00
14614;DHT22;7393;51.446;6.800;2023-10-31T08:56:39;11.90;1.00
14614;DHT22;7393;51.446;6.800;2023-10-31T08:59:07;11.90;1.00
14614;DHT22;7393;51.446;6.800;2023-10-31T09:01:34;11.90;1.00
14614;DHT22;7393;51.446;6.800;2023-10-31T09:04:01;11.90;1.00
14614;DHT22;7393;51.446;6.800;2023-10-31T09:06:28;11.90;1.00
14614;DHT22;7393;51.446;6.800;2023-10-31T09:08:55;12.00;1.00
14614;DHT22;7393;51.446;6.800;2023-10-31T09:11:21;11.90;1.00
14614;DHT22;7393;51.446;6.800;2023-10-31T09:13:48;11.90;1.00
14614;DHT22;7393;51.446;6.800;2023-10-31T09:16:16;11.90;1.00
14614;DHT22;7393;51.446;6.800;2023-10-31T09:18:43;12.00;1.00
14614;DHT22;7393;51.446;6.800;2023-10-31T09:21:10;12.00;1.00
14614;DHT22;7393;51.446;6.800;2023-10-31T09:23:37;12.00;1.00
14614;DHT22;7393;51.446;6.800;2023-10-31T09:26:04;12.10;1.00
14614;DHT22;7393;51.446;6.800;2023-10-31T09:28:30;12.10;1.00
14614;DHT22;7393;51.446;6.800;2023-10-31T09:30:57;12.10;1.00
14614;DHT22;7393;51.446;6.800;2023-10-31T09:33:26;12.10;1.00
14614;DHT22;7393;51.446;6.800;2023-10-31T09:35:53;12.10;1.00
14614;DHT22;7393;51.446;6.800;2023-10-31T09:38:20;12.20;1.00
14614;DHT22;7393;51.446;6.800;2023-10-31T09:40:47;12.10;1.00
14614;DHT22;7393;51.446;6.800;2023-10-31T09:43:14;12.30;1.00
14614;DHT22;7393;51.446;6.800;2023-10-31T09:45:40;12.30;1.00
14614;DHT22;7393;51.446;6.800;2023-10-31T09:48:08;12.40;1.00
14614;DHT22;7393;51.446;6.800;2023-10-31T09:50:37;12.50;1.00
14614;DHT22;7393;51.446;6.800;2023-10-31T09:53:06;12.50;1.00
14614;DHT22;7393;51.446;6.800;2023-10-31T09:55:33;12.50;1.00
14614;DHT22;7393;51.446;6.800;2023-10-31T09:58:00;12.50;1.00
14614;DHT22;7393;51.446;6.800;2023-10-31T10:00:27;12.40;1.00
14614;DHT22;7393;51.446;6.800;2023-10-31T10:02:54;12.50;1.00
14614;DHT22;7393;51.446;6.800;2023-10-31T10:05:23;12.40;1.00
14614;DHT22;7393;51.446;6.800;2023-10-31T10:07:55;12.40;1.00
14614;DHT22;7393;51.446;6.800;2023-10-31T10:10:22;12.40;1.00
14614;DHT22;7393;51.446;6.800;2023-10-31T10:12:48;12.40;1.00
14614;DHT22;7393;51.446;6.800;2023-10-31T10:15:18;12.40;1.00
14614;DHT22;7393;51.446;6.800;2023-10-31T10:17:49;12.40;1.00
14614;DHT22;7393;51.446;6.800;2023-10-31T10:20:16;12.30;1.00
14614;DHT22;7393;51.446;6.800;2023-10-31T10:22:44;12.30;1.00
14614;DHT22;7393;51.446;6.800;2023-10-31T10:25:13;12.40;1.00
14614;DHT22;7393;51.446;6.800;2023-10-31T10:27:41;12.40;1.00
14614;DHT22;7393;51.446;6.800;2023-10-31T10:30:09;12.50;1.00
14614;DHT22;7393;51.446;6.800;2023-10-31T10:32:36;12.40;1.00
14614;DHT22;7393;51.446;6.800;2023-10-31T10:35:03;12.40;1.00
14614;DHT22;7393;51.446;6.800;2023-10-31T10:37:30;12.40;1.00
14614;DHT22;7393;51.446;6.800;2023-10-31T10:39:58;12.40;1.00
14614;DHT22;7393;51.446;6.800;2023-10-31T10:42:31;12.40;1.00
14614;DHT22;7393;51.446;6.800;2023-10-31T10:45:02;12.40;1.00
14614;DHT22;7393;51.446;6.800;2023-10-31T10:47:31;12.50;1.00
14614;DHT22;7393;51.446;6.800;2023-10-31T10:50:00;12.50;1.00
14614;DHT22;7393;51.446;6.800;2023-10-31T10:52:30;12.60;1.00
14614;DHT22;7393;51.446;6.800;2023-10-31T10:55:03;12.60;1.00
14614;DHT22;7393;51.446;6.800;2023-10-31T10:57:37;12.60;1.00
14614;DHT22;7393;51.446;6.800;2023-10-31T11:00:06;12.60;1.00
14614;DHT22;7393;51.446;6.800;2023-10-31T11:02:39;12.60;1.00
14614;DHT22;7393;51.446;6.800;2023-10-31T11:05:06;12.70;1.00
14614;DHT22;7393;51.446;6.800;2023-10-31T11:07:34;12.70;1.00
14614;DHT22;7393;51.446;6.800;2023-10-31T11:10:02;12.80;1.00
14614;DHT22;7393;51.446;6.800;2023-10-31T11:12:30;12.80;1.00
14614;DHT22;7393;51.446;6.800;2023-10-31T11:14:59;12.80;1.00
14614;DHT22;7393;51.446;6.800;2023-10-31T11:17:29;12.80;1.00
14614;DHT22;7393;51.446;6.800;2023-10-31T11:19:58;12.80;1.00
14614;DHT22;7393;51.446;6.800;2023-10-31T11:22:25;12.90;99.90
14614;DHT22;7393;51.446;6.800;2023-10-31T11:24:52;12.90;99.90
14614;DHT22;7393;51.446;6.800;2023-10-31T11:27:19;13.00;99.90
14614;DHT22;7393;51.446;6.800;2023-10-31T11:29:47;13.00;71.20
14614;DHT22;7393;51.446;6.800;2023-10-31T11:32:16;13.00;99.90
14614;DHT22;7393;51.446;6.800;2023-10-31T11:34:43;13.00;99.90
14614;DHT22;7393;51.446;6.800;2023-10-31T11:37:22;13.00;1.00
14614;DHT22;7393;51.446;6.800;2023-10-31T11:40:15;13.20;99.90
14614;DHT22;7393;51.446;6.800;2023-10-31T11:42:43;13.30;96.70
14614;DHT22;7393;51.446;6.800;2023-10-31T11:45:10;13.40;1.00
14614;DHT22;7393;51.446;6.800;2023-10-31T11:47:48;13.40;1.00
14614;DHT22;7393;51.446;6.800;2023-10-31T11:50:16;13.40;26.40
14614;DHT22;7393;51.446;6.800;2023-10-31T11:52:43;13.50;41.40
14614;DHT22;7393;51.446;6.800;2023-10-31T11:55:11;13.50;99.90
14614;DHT22;7393;51.446;6.800;2023-10-31T11:57:38;13.50;1.00
14614;DHT22;7393;51.446;6.800;2023-10-31T12:00:06;13.50;1.00
14614;DHT22;7393;51.446;6.800;2023-10-31T12:02:35;13.60;99.90
14614;DHT22;7393;51.446;6.800;2023-10-31T12:05:10;13.60;1.00
14614;DHT22;7393;51.446;6.800;2023-10-31T12:07:43;13.60;99.90
14614;DHT22;7393;51.446;6.800;2023-10-31T12:10:11;13.60;1.00
14614;DHT22;7393;51.446;6.800;2023-10-31T12:12:39;13.50;1.00
14614;DHT22;7393;51.446;6.800;2023-10-31T12:15:06;13.50;99.90
14614;DHT22;7393;51.446;6.800;2023-10-31T12:17:33;13.50;1.00
14614;DHT22;7393;51.446;6.800;2023-10-31T12:20:03;13.50;99.90
14614;DHT22;7393;51.446;6.800;2023-10-31T12:22:32;13.50;99.90
14614;DHT22;7393;51.446;6.800;2023-10-31T12:25:01;13.50;99.90
14614;DHT22;7393;51.446;6.800;2023-10-31T12:27:42;13.50;99.90
14614;DHT22;7393;51.446;6.800;2023-10-31T12:30:10;13.60;1.00
14614;DHT22;7393;51.446;6.800;2023-10-31T12:32:37;13.60;1.00
14614;DHT22;7393;51.446;6.800;2023-10-31T12:35:04;13.70;99.90
14614;DHT22;7393;51.446;6.800;2023-10-31T12:37:33;13.70;1.00
14614;DHT22;7393;51.446;6.800;2023-10-31T12:40:00;13.80;99.90
14614;DHT22;7393;51.446;6.800;2023-10-31T12:42:30;13.90;1.00
14614;DHT22;7393;51.446;6.800;2023-10-31T12:44:58;13.90;1.00
14614;DHT22;7393;51.446;6.800;2023-10-31T12:47:25;13.90;1.00
14614;DHT22;7393;51.446;6.800;2023-10-31T12:50:06;13.90;99.90
14614;DHT22;7393;51.446;6.800;2023-10-31T12:52:47;13.90;1.00
14614;DHT22;7393;51.446;6.800;2023-10-31T12:55:15;13.80;11.70
14614;DHT22;7393;51.446;6.800;2023-10-31T12:57:42;13.90;99.90
14614;DHT22;7393;51.446;6.800;2023-10-31T13:00:09;13.90;99.90
14614;DHT22;7393;51.446;6.800;2023-10-31T13:02:38;13.90;1.00
14614;DHT22;7393;51.446;6.800;2023-10-31T13:05:10;14.00;1.00
14614;DHT22;7393;51.446;6.800;2023-10-31T13:07:39;14.00;99.90
14614;DHT22;7393;51.446;6.800;2023-10-31T13:10:08;14.00;99.90
14614;DHT22;7393;51.446;6.800;2023-10-31T13:12:36;14.00;99.90
14614;DHT22;7393;51.446;6.800;2023-10-31T13:15:04;14.00;99.90
14614;DHT22;7393;51.446;6.800;2023-10-31T13:17:31;14.00;99.90
14614;DHT22;7393;51.446;6.800;2023-10-31T13:19:58;14.00;1.00
14614;DHT22;7393;51.446;6.800;2023-10-31T13:22:24;13.90;78.40
14614;DHT22;7393;51.446;6.800;2023-10-31T13:24:51;14.00;1.00
14614;DHT22;7393;51.446;6.800;2023-10-31T13:27:20;14.00;1.00
14614;DHT22;7393;51.446;6.800;2023-10-31T13:29:46;14.00;99.90
14614;DHT22;7393;51.446;6.800;2023-10-31T13:32:15;13.90;1.00
14614;DHT22;7393;51.446;6.800;2023-10-31T13:34:42;13.90;1.00
14614;DHT22;7393;51.446;6.800;2023-10-31T13:37:09;13.90;1.00
14614;DHT22;7393;51.446;6.800;2023-10-31T13:39:36;13.90;99.90
14614;DHT22;7393;51.446;6.800;2023-10-31T13:42:02;13.80;99.90
14614;DHT22;7393;51.446;6.800;2023-10-31T13:44:31;13.80;1.00
14614;DHT22;7393;51.446;6.800;2023-10-31T13:46:57;13.80;1.00
14614;DHT22;7393;51.446;6.800;2023-10-31T13:49:24;13.90;64.10
14614;DHT22;7393;51.446;6.800;2023-10-31T13:51:51;13.90;1.00
14614;DHT22;7393;51.446;6.800;2023-10-31T13:54:18;14.00;99.90
14614;DHT22;7393;51.446;6.800;2023-10-31T13:56:45;14.00;1.00
14614;DHT22;7393;51.446;6.800;2023-10-31T13:59:12;14.10;1.00
14614;DHT22;7393;51.446;6.800;2023-10-31T14:01:41;14.20;99.90
14614;DHT22;7393;51.446;6.800;2023-10-31T14:04:09;14.20;1.00
14614;DHT22;7393;51.446;6.800;2023-10-31T14:06:37;14.30;99.90
14614;DHT22;7393;51.446;6.800;2023-10-31T14:09:04;14.30;1.00
14614;DHT22;7393;51.446;6.800;2023-10-31T14:11:32;14.30;99.90
14614;DHT22;7393;51.446;6.800;2023-10-31T14:13:59;14.40;1.00
14614;DHT22;7393;51.446;6.800;2023-10-31T14:16:31;14.40;99.90
14614;DHT22;7393;51.446;6.800;2023-10-31T14:18:59;14.40;1.00
14614;DHT22;7393;51.446;6.800;2023-10-31T14:21:27;14.40;1.00
14614;DHT22;7393;51.446;6.800;2023-10-31T14:23:54;14.40;1.00
14614;DHT22;7393;51.446;6.800;2023-10-31T14:26:21;14.40;1.00
14614;DHT22;7393;51.446;6.800;2023-10-31T14:28:49;14.40;1.00
14614;DHT22;7393;51.446;6.800;2023-10-31T14:31:16;14.40;99.90
14614;DHT22;7393;51.446;6.800;2023-10-31T14:33:43;14.40;1.00
14614;DHT22;7393;51.446;6.800;2023-10-31T14:36:11;14.40;1.00
14614;DHT22;7393;51.446;6.800;2023-10-31T14:38:39;14.40;97.80
14614;DHT22;7393;51.446;6.800;2023-10-31T14:41:06;14.40;1.80
14614;DHT22;7393;51.446;6.800;2023-10-31T14:43:34;14.40;1.00
14614;DHT22;7393;51.446;6.800;2023-10-31T14:46:01;14.30;99.90
14614;DHT22;7393;51.446;6.800;2023-10-31T14:48:28;14.30;39.20
14614;DHT22;7393;51.446;6.800;2023-10-31T14:50:55;14.20;1.00
14614;DHT22;7393;51.446;6.800;2023-10-31T14:53:24;14.30;1.00
14614;DHT22;7393;51.446;6.800;2023-10-31T14:55:51;14.30;99.90
14614;DHT22;7393;51.446;6.800;2023-10-31T14:58:18;14.20;99.90
14614;DHT22;7393;51.446;6.800;2023-10-31T15:00:45;14.20;1.00
14614;DHT22;7393;51.446;6.800;2023-10-31T15:03:12;14.10;1.00
14614;DHT22;7393;51.446;6.800;2023-10-31T15:05:38;14.10;1.00
14614;DHT22;7393;51.446;6.800;2023-10-31T15:08:05;14.10;18.70
14614;DHT22;7393;51.446;6.800;2023-10-31T15:10:34;14.10;1.00
14614;DHT22;7393;51.446;6.800;2023-10-31T15:13:00;14.00;1.00
14614;DHT22;7393;51.446;6.800;2023-10-31T15:15:27;14.00;99.90
14614;DHT22;7393;51.446;6.800;2023-10-31T15:17:54;14.00;99.90
14614;DHT22;7393;51.446;6.800;2023-10-31T15:20:21;13.90;1.00
14614;DHT22;7393;51.446;6.800;2023-10-31T15:22:48;13.90;1.00
14614;DHT22;7393;51.446;6.800;2023-10-31T15:25:15;13.90;99.90
14614;DHT22;7393;51.446;6.800;2023-10-31T15:27:43;13.90;21.00
14614;DHT22;7393;51.446;6.800;2023-10-31T15:30:10;13.80;99.90
14614;DHT22;7393;51.446;6.800;2023-10-31T15:32:38;13.80;99.90
14614;DHT22;7393;51.446;6.800;2023-10-31T15:35:05;13.80;1.00
14614;DHT22;7393;51.446;6.800;2023-10-31T15:37:32;13.80;1.00
14614;DHT22;7393;51.446;6.800;2023-10-31T15:39:59;13.70;1.00
14614;DHT22;7393;51.446;6.800;2023-10-31T15:42:26;13.70;1.00
14614;DHT22;7393;51.446;6.800;2023-10-31T15:44:55;13.70;1.00
14614;DHT22;7393;51.446;6.800;2023-10-31T15:47:22;13.70;99.90
14614;DHT22;7393;51.446;6.800;2023-10-31T15:49:49;13.70;1.00
14614;DHT22;7393;51.446;6.800;2023-10-31T15:52:16;13.70;1.00
14614;DHT22;7393;51.446;6.800;2023-10-31T15:54:43;13.70;1.00
14614;DHT22;7393;51.446;6.800;2023-10-31T15:57:09;13.60;36.90
14614;DHT22;7393;51.446;6.800;2023-10-31T15:59:36;13.60;1.00
14614;DHT22;7393;51.446;6.800;2023-10-31T16:02:05;13.70;57.30